Time;durP1;ratioP1;P1;durP2;ratioP2;P2;SDS_P1;SDS_P2;PMS_P1;PMS_P2;Temp;Humidity;BMP_temperature;BMP_pressure;BME280_temperature;BME280_humidity;BME280_pressure;Samples;Min_cycle;Max_cycle;Signal;HPM_P1;HPM_P2
2023/09/13 00:02:05;;;;;;;11.88;4.55;;;;;;;19.50;69.79;101089.72;5033479;28;20044;-47
2023/09/13 00:04:31;;;;;;;14.07;3.83;;;;;;;19.32;71.14;101097.41;5033427;28;20378;-46
2023/09/13 00:06:57;;;;;;;9.35;4.20;;;;;;;19.21;71.53;101089.19;5033447;28;20402;-46
2023/09/13 00:09:23;;;;;;;8.88;4.70;;;;;;;18.86;73.24;101089.66;5033409;28;20025;-43
2023/09/13 00:11:50;;;;;;;13.18;5.53;;;;;;;18.72;74.07;101099.25;5033672;28;20036;-44
2023/09/13 00:14:16;;;;;;;9.10;5.15;;;;;;;18.30;76.55;101086.25;5033285;28;20037;-47
2023/09/13 00:16:42;;;;;;;11.88;5.38;;;;;;;18.16;77.58;101091.22;5033942;28;20048;-45
2023/09/13 00:19:09;;;;;;;14.55;5.88;;;;;;;17.89;79.03;101093.00;5033112;28;20112;-44
2023/09/13 00:21:40;;;;;;;9.52;5.32;;;;;;;17.91;78.80;101093.56;5033296;28;20032;-43
2023/09/13 00:24:07;;;;;;;15.63;7.00;;;;;;;17.91;79.40;101088.16;5033116;28;20021;-43
2023/09/13 00:26:34;;;;;;;16.58;6.57;;;;;;;17.62;80.73;101084.69;5033068;28;20033;-44
2023/09/13 00:29:00;;;;;;;15.27;6.03;;;;;;;17.59;81.02;101091.41;5033401;28;20048;-42
2023/09/13 00:31:27;;;;;;;17.13;6.82;;;;;;;17.58;81.11;101083.53;5032980;28;20025;-42
2023/09/13 00:33:53;;;;;;;11.32;4.97;;;;;;;17.51;80.78;101083.72;5032978;28;20029;-44
2023/09/13 00:36:19;;;;;;;17.50;6.32;;;;;;;17.30;81.62;101092.56;5032710;28;20038;-43
2023/09/13 00:38:45;;;;;;;16.45;5.70;;;;;;;17.52;80.93;101088.06;5032889;28;20026;-42
2023/09/13 00:41:12;;;;;;;22.70;7.32;;;;;;;17.23;82.37;101086.47;5032830;28;20095;-44
2023/09/13 00:43:38;;;;;;;16.60;5.90;;;;;;;17.42;81.16;101091.41;5032903;28;20025;-43
2023/09/13 00:46:05;;;;;;;12.68;5.57;;;;;;;17.53;80.92;101086.97;5032776;28;20175;-43
2023/09/13 00:48:35;;;;;;;28.92;6.75;;;;;;;17.45;81.45;101087.41;5032746;28;20021;-45
2023/09/13 00:51:03;;;;;;;13.82;5.35;;;;;;;17.72;80.57;101074.06;5032962;28;20112;-43
2023/09/13 00:53:32;;;;;;;17.67;5.93;;;;;;;17.57;80.36;101071.09;5033144;28;20048;-43
2023/09/13 00:55:59;;;;;;;12.38;5.00;;;;;;;17.60;79.94;101066.00;5032877;28;20482;-44
2023/09/13 00:58:26;;;;;;;17.20;5.68;;;;;;;17.61;80.19;101073.06;5033510;28;20235;-44
2023/09/13 01:00:53;;;;;;;18.88;6.07;;;;;;;17.69;80.08;101063.69;5032958;28;20040;-44
2023/09/13 01:03:21;;;;;;;16.80;5.05;;;;;;;17.48;80.47;101062.53;5032762;28;20056;-43
2023/09/13 01:05:52;;;;;;;16.77;5.88;;;;;;;17.41;81.16;101057.28;5033971;28;20024;-44
2023/09/13 01:08:20;;;;;;;18.52;6.22;;;;;;;17.15;82.22;101069.56;5036694;28;20021;-44
2023/09/13 01:10:47;;;;;;;16.23;5.68;;;;;;;17.34;82.14;101063.94;5036976;28;20051;-44
2023/09/13 01:13:14;;;;;;;18.98;5.85;;;;;;;17.28;82.47;101057.63;5036475;28;20056;-44
2023/09/13 01:16:17;;;;;;;17.02;5.70;;;;;;;17.23;82.89;101064.84;5036567;28;20033;-44
2023/09/13 01:19:17;;;;;;;19.60;7.05;;;;;;;17.33;82.60;101059.63;5036824;28;20033;-44
2023/09/13 01:22:06;;;;;;;17.60;6.63;;;;;;;17.23;83.02;101062.97;5036819;28;20028;-44
2023/09/13 01:24:56;;;;;;;21.08;7.05;;;;;;;17.12;83.78;101051.13;5036429;28;20044;-45
2023/09/13 01:27:26;;;;;;;28.27;7.35;;;;;;;17.06;84.01;101049.41;5036470;28;20025;-43
2023/09/13 01:29:53;;;;;;;21.65;6.55;;;;;;;17.06;84.27;101038.59;5036481;28;20029;-42
2023/09/13 01:32:20;;;;;;;17.90;6.20;;;;;;;17.09;84.57;101048.91;5036510;28;20029;-45
2023/09/13 01:34:46;;;;;;;17.75;5.85;;;;;;;17.11;85.09;101049.50;5036083;28;20052;-45
2023/09/13 01:37:12;;;;;;;19.30;7.18;;;;;;;17.03;85.20;101060.69;5036213;28;20029;-46
2023/09/13 01:39:39;;;;;;;28.48;8.25;;;;;;;17.10;84.54;101063.25;5036502;28;20354;-44
2023/09/13 01:42:10;;;;;;;24.30;7.43;;;;;;;16.97;84.64;101067.09;5036202;28;20021;-44
2023/09/13 01:44:40;;;;;;;23.95;7.32;;;;;;;16.87;84.63;101062.31;5033215;28;20033;-45
2023/09/13 01:47:08;;;;;;;25.65;7.10;;;;;;;16.85;84.56;101058.22;5036241;28;20047;-44
2023/09/13 01:49:36;;;;;;;21.00;7.18;;;;;;;16.97;84.17;101063.56;5036185;28;20469;-44
2023/09/13 01:52:05;;;;;;;18.45;6.63;;;;;;;16.89;84.31;101062.91;5036129;28;20090;-44
2023/09/13 01:54:36;;;;;;;24.33;8.15;;;;;;;16.83;84.08;101063.88;5036219;28;20104;-44
2023/09/13 01:57:03;;;;;;;23.25;6.70;;;;;;;16.69;84.86;101069.78;5035889;28;20416;-44
2023/09/13 01:59:31;;;;;;;20.60;7.38;;;;;;;16.70;84.55;101052.50;5035843;28;20028;-44
2023/09/13 02:01:57;;;;;;;18.90;6.80;;;;;;;16.59;84.65;101055.00;5035772;28;20029;-44
2023/09/13 02:04:24;;;;;;;19.23;5.65;;;;;;;16.71;84.09;101056.84;5036019;28;20096;-45
2023/09/13 02:06:50;;;;;;;27.60;7.55;;;;;;;16.69;84.57;101058.97;5035618;28;20069;-44
2023/09/13 02:09:17;;;;;;;23.17;6.85;;;;;;;16.79;84.08;101056.50;5035422;28;20021;-43
2023/09/13 02:11:44;;;;;;;20.92;6.75;;;;;;;16.69;84.97;101061.66;5035807;28;20033;-44
2023/09/13 02:14:10;;;;;;;18.48;6.32;;;;;;;16.55;85.48;101063.84;5035702;28;20032;-44
2023/09/13 02:16:37;;;;;;;18.13;6.32;;;;;;;16.52;85.64;101067.00;5035390;28;20474;-44
2023/09/13 02:19:06;;;;;;;16.20;6.07;;;;;;;16.48;86.12;101073.94;5050478;28;20030;-45
2023/09/13 02:21:32;;;;;;;17.77;5.13;;;;;;;16.55;85.17;101072.75;5035192;28;20025;-43
2023/09/13 02:23:58;;;;;;;22.85;7.00;;;;;;;16.35;86.21;101075.03;5035305;28;20033;-44
2023/09/13 02:26:25;;;;;;;23.52;6.60;;;;;;;16.51;85.65;101078.88;5035340;28;20033;-43
2023/09/13 02:28:53;;;;;;;22.42;5.95;;;;;;;16.46;86.53;101078.78;5035630;28;20414;-43
2023/09/13 02:31:27;;;;;;;18.50;6.78;;;;;;;16.48;86.08;101080.16;5035252;28;20156;-42
2023/09/13 02:33:54;;;;;;;20.50;7.07;;;;;;;16.34;86.93;101073.41;5035082;28;20032;-42
2023/09/13 02:36:22;;;;;;;20.88;6.50;;;;;;;16.35;86.47;101075.84;5034946;28;20072;-42
2023/09/13 02:38:49;;;;;;;24.33;6.88;;;;;;;16.29;87.06;101078.69;5034980;28;20425;-44
2023/09/13 02:41:16;;;;;;;15.38;5.60;;;;;;;16.34;86.55;101076.09;5034958;28;20079;-43
2023/09/13 02:43:42;;;;;;;24.17;6.80;;;;;;;16.17;87.84;101075.22;5035135;28;20462;-44
2023/09/13 02:46:08;;;;;;;20.83;6.35;;;;;;;16.06;88.19;101072.28;5035065;28;20026;-42
2023/09/13 02:48:35;;;;;;;19.80;5.93;;;;;;;16.17;88.50;101078.72;5034954;28;20040;-47
2023/09/13 02:51:01;;;;;;;14.98;5.63;;;;;;;16.14;88.50;101083.75;5034590;28;20018;-42
2023/09/13 02:53:27;;;;;;;27.52;8.07;;;;;;;16.09;89.08;101082.59;5034710;28;20029;-43
2023/09/13 02:56:02;;;;;;;17.65;6.35;;;;;;;16.07;89.26;101078.50;5035140;28;20028;-45
2023/09/13 02:58:28;;;;;;;18.63;5.78;;;;;;;16.08;89.69;101086.34;5034854;28;20110;-43
2023/09/13 03:00:56;;;;;;;18.75;6.32;;;;;;;16.10;89.76;101078.00;5034553;28;20045;-42
2023/09/13 03:03:23;;;;;;;21.88;6.50;;;;;;;16.05;89.94;101081.44;5034855;28;20470;-44
2023/09/13 03:05:49;;;;;;;26.27;6.60;;;;;;;15.97;90.53;101089.88;5034666;28;20033;-48
2023/09/13 03:08:16;;;;;;;20.17;6.55;;;;;;;16.10;89.56;101081.56;5034844;28;20401;-44
2023/09/13 03:10:42;;;;;;;19.75;6.10;;;;;;;16.02;89.94;101084.59;5034522;28;20132;-44
2023/09/13 03:13:08;;;;;;;15.70;6.63;;;;;;;15.91;90.61;101074.63;5049698;28;20033;-43
2023/09/13 03:15:34;;;;;;;19.83;6.65;;;;;;;15.89;91.07;101081.34;5034407;28;20018;-44
2023/09/13 03:18:01;;;;;;;18.38;6.63;;;;;;;15.91;91.05;101080.03;5034477;28;20025;-45
2023/09/13 03:20:27;;;;;;;20.08;6.95;;;;;;;15.94;90.84;101089.56;5034299;28;20022;-43
2023/09/13 03:22:55;;;;;;;22.58;6.75;;;;;;;15.83;91.67;101097.41;5034329;28;20500;-43
2023/09/13 03:25:21;;;;;;;18.17;6.00;;;;;;;15.78;91.38;101094.59;5034276;28;20048;-43
2023/09/13 03:27:48;;;;;;;22.17;6.38;;;;;;;15.78;91.29;101104.56;5034031;28;20033;-48
2023/09/13 03:30:15;;;;;;;21.60;6.78;;;;;;;15.81;91.36;101102.19;5033863;28;20478;-44
2023/09/13 03:32:41;;;;;;;24.95;6.20;;;;;;;15.88;90.96;101107.50;5033969;28;20053;-44
2023/09/13 03:35:10;;;;;;;21.35;6.35;;;;;;;15.79;90.97;101107.03;5033989;28;20049;-44
2023/09/13 03:37:36;;;;;;;20.08;6.43;;;;;;;15.72;92.04;101102.81;5033926;28;20075;-43
2023/09/13 03:40:05;;;;;;;17.40;6.07;;;;;;;15.81;91.70;101101.38;5033990;28;20458;-43
2023/09/13 03:42:31;;;;;;;20.42;5.82;;;;;;;15.86;91.33;101100.69;5034177;28;20105;-42
2023/09/13 03:44:58;;;;;;;23.23;6.60;;;;;;;15.73;91.72;101099.03;5033829;28;20025;-46
2023/09/13 03:47:24;;;;;;;18.60;6.22;;;;;;;15.77;91.35;101105.63;5033674;28;20025;-45
2023/09/13 03:49:50;;;;;;;15.43;6.35;;;;;;;15.76;91.29;101102.06;5033648;28;20108;-43
2023/09/13 03:52:16;;;;;;;22.88;6.93;;;;;;;15.67;91.93;101108.91;5033539;28;20025;-44
2023/09/13 03:54:43;;;;;;;25.60;6.35;;;;;;;15.68;92.18;101120.50;5033695;28;20032;-44
2023/09/13 03:57:09;;;;;;;24.60;7.00;;;;;;;15.73;91.37;101116.06;5033698;28;20432;-46
2023/09/13 03:59:35;;;;;;;19.15;6.18;;;;;;;15.69;91.33;101120.25;5033702;28;20068;-45
2023/09/13 04:02:01;;;;;;;17.73;5.70;;;;;;;15.83;90.78;101123.59;5033851;28;20029;-43
2023/09/13 04:04:27;;;;;;;19.35;5.82;;;;;;;15.74;90.66;101123.09;5033629;28;20045;-44
2023/09/13 04:06:54;;;;;;;15.65;5.40;;;;;;;15.68;90.80;101125.91;5033427;28;20032;-44
2023/09/13 04:09:22;;;;;;;20.10;5.57;;;;;;;15.61;90.45;101125.16;5033567;28;20447;-43
2023/09/13 04:11:48;;;;;;;25.55;6.63;;;;;;;15.62;90.41;101130.31;5033365;28;20540;-42
2023/09/13 04:14:15;;;;;;;24.13;6.68;;;;;;;15.58;90.40;101135.34;5033419;28;20029;-43
2023/09/13 04:16:41;;;;;;;20.15;5.88;;;;;;;15.65;89.49;101127.19;5033468;28;20021;-43
2023/09/13 04:19:07;;;;;;;17.13;6.05;;;;;;;15.70;89.37;101132.69;5033318;28;20104;-44
2023/09/13 04:21:33;;;;;;;14.00;4.97;;;;;;;15.62;89.67;101135.72;5033709;28;20042;-44
2023/09/13 04:24:01;;;;;;;19.05;5.97;;;;;;;15.67;89.34;101137.75;5033502;28;20029;-43
2023/09/13 04:26:27;;;;;;;18.30;6.15;;;;;;;15.54;89.80;101144.97;5033411;28;20044;-44
2023/09/13 04:28:54;;;;;;;15.85;5.40;;;;;;;15.68;89.43;101142.09;5034059;28;20592;-44
2023/09/13 04:31:20;;;;;;;20.88;6.05;;;;;;;15.60;88.81;101132.41;5033372;28;20045;-44
2023/09/13 04:33:51;;;;;;;28.25;7.88;;;;;;;15.66;89.07;101136.13;5033166;28;20104;-43
2023/09/13 04:36:18;;;;;;;19.45;6.25;;;;;;;15.71;88.86;101130.81;5033096;28;20049;-44
2023/09/13 04:38:45;;;;;;;17.33;5.63;;;;;;;15.61;89.10;101133.25;5033010;28;20030;-43
2023/09/13 04:41:15;;;;;;;22.45;6.10;;;;;;;15.67;88.97;101137.75;5032875;28;20025;-45
2023/09/13 04:43:41;;;;;;;22.52;6.10;;;;;;;15.65;88.99;101134.44;5033011;28;20022;-44
2023/09/13 04:46:08;;;;;;;27.58;6.32;;;;;;;15.69;88.77;101139.16;5033014;28;20045;-44
2023/09/13 04:48:34;;;;;;;19.15;5.60;;;;;;;15.67;88.96;101132.38;5033159;28;20037;-44
2023/09/13 04:51:02;;;;;;;23.10;6.65;;;;;;;15.61;89.03;101123.28;5033093;28;20501;-44
2023/09/13 04:53:28;;;;;;;17.60;6.13;;;;;;;15.75;88.38;101124.72;5032821;28;20037;-44
2023/09/13 04:55:55;;;;;;;16.83;5.85;;;;;;;15.81;87.78;101117.56;5032794;28;20018;-44
2023/09/13 04:58:21;;;;;;;26.08;6.57;;;;;;;15.68;88.59;101124.03;5033117;28;20017;-43
2023/09/13 05:00:47;;;;;;;16.23;5.97;;;;;;;15.71;88.39;101118.19;5031632;28;20060;-43
2023/09/13 05:03:14;;;;;;;18.02;5.03;;;;;;;15.71;88.40;101118.19;5033304;28;20037;-42
2023/09/13 05:05:40;;;;;;;15.85;5.32;;;;;;;15.70;87.94;101115.69;5015306;28;20022;-43
2023/09/13 05:08:06;;;;;;;19.15;6.28;;;;;;;15.74;87.97;101115.00;5032709;28;20029;-42
2023/09/13 05:10:33;;;;;;;17.88;5.63;;;;;;;15.73;87.98;101110.66;5032650;28;20072;-43
2023/09/13 05:13:00;;;;;;;18.33;6.82;;;;;;;15.65;88.32;101124.47;5032601;28;20091;-42
2023/09/13 05:15:26;;;;;;;15.90;5.47;;;;;;;15.63;88.52;101121.19;5032725;28;20026;-42
2023/09/13 05:17:53;;;;;;;20.88;6.38;;;;;;;15.67;87.98;101118.88;5032520;28;20025;-43
2023/09/13 05:20:19;;;;;;;20.85;6.22;;;;;;;15.75;88.02;101123.91;5032879;28;20032;-43
2023/09/13 05:22:46;;;;;;;17.60;5.85;;;;;;;15.67;88.06;101122.38;5033012;28;20022;-43
2023/09/13 05:25:12;;;;;;;23.42;6.57;;;;;;;15.70;88.53;101138.09;5032695;28;20501;-43
2023/09/13 05:27:38;;;;;;;15.00;5.93;;;;;;;15.72;87.85;101130.59;5032617;28;20022;-45
2023/09/13 05:30:05;;;;;;;16.90;6.28;;;;;;;15.70;87.84;101127.31;5032509;28;20033;-43
2023/09/13 05:32:31;;;;;;;23.25;6.72;;;;;;;15.71;88.10;101125.41;5032432;28;20412;-44
2023/09/13 05:34:58;;;;;;;19.15;6.10;;;;;;;15.74;87.72;101130.38;5032450;28;20052;-45
2023/09/13 05:37:25;;;;;;;20.10;6.15;;;;;;;15.69;87.71;101132.94;5032360;28;20022;-43
2023/09/13 05:39:52;;;;;;;19.88;6.05;;;;;;;15.70;87.46;101131.88;5032764;28;20119;-45
2023/09/13 05:42:18;;;;;;;16.08;5.60;;;;;;;15.78;87.27;101126.97;5032491;28;20478;-43
2023/09/13 05:44:44;;;;;;;22.40;5.50;;;;;;;15.77;87.74;101144.22;5032301;28;20443;-44
2023/09/13 05:47:10;;;;;;;16.23;5.43;;;;;;;15.77;87.35;101132.63;5032320;28;20425;-45
2023/09/13 05:49:37;;;;;;;17.25;5.93;;;;;;;15.75;87.91;101134.72;5032309;28;20030;-45
2023/09/13 05:52:03;;;;;;;14.05;6.07;;;;;;;15.80;87.50;101134.84;5033769;28;20071;-44
2023/09/13 05:54:29;;;;;;;19.77;5.93;;;;;;;15.68;88.40;101128.59;5035847;28;20099;-45
2023/09/13 05:56:56;;;;;;;20.00;5.95;;;;;;;15.61;88.41;101134.09;5035780;28;20370;-44
2023/09/13 05:59:23;;;;;;;17.92;6.05;;;;;;;15.70;88.42;101134.56;5035839;28;20079;-43
2023/09/13 06:01:50;;;;;;;20.73;5.32;;;;;;;15.67;88.62;101137.75;5035557;28;20485;-44
2023/09/13 06:04:16;;;;;;;24.63;6.50;;;;;;;15.61;88.95;101133.25;5035614;28;20055;-44
2023/09/13 06:06:42;;;;;;;20.67;6.35;;;;;;;15.64;89.11;101125.53;5035634;28;20033;-44
2023/09/13 06:09:09;;;;;;;19.33;6.43;;;;;;;15.61;89.40;101130.56;5035532;28;20108;-43
2023/09/13 06:11:35;;;;;;;18.75;6.10;;;;;;;15.58;90.00;101129.94;5035628;28;20359;-44
2023/09/13 06:14:07;;;;;;;16.23;5.75;;;;;;;15.55;91.03;101129.63;5035402;28;20021;-44
2023/09/13 06:16:33;;;;;;;19.92;6.03;;;;;;;15.71;90.75;101118.19;5035401;28;20108;-45
2023/09/13 06:18:59;;;;;;;16.65;6.30;;;;;;;15.66;91.39;101122.63;5035439;28;20017;-44
2023/09/13 06:21:26;;;;;;;26.30;6.80;;;;;;;15.67;91.09;101122.38;5035459;28;20084;-43
2023/09/13 06:23:52;;;;;;;23.35;5.57;;;;;;;15.60;91.78;101121.63;5035303;28;20022;-44
2023/09/13 06:26:21;;;;;;;21.13;6.55;;;;;;;15.65;91.70;101124.47;5035330;28;20022;-43
2023/09/13 06:28:47;;;;;;;21.65;6.65;;;;;;;15.66;91.86;101128.03;5035302;28;20026;-43
2023/09/13 06:31:14;;;;;;;24.60;6.32;;;;;;;15.69;92.28;101114.06;5035126;28;20354;-43
2023/09/13 06:33:41;;;;;;;21.27;6.38;;;;;;;15.65;92.03;101120.97;5035224;28;20029;-42
2023/09/13 06:36:07;;;;;;;24.77;5.75;;;;;;;15.69;92.39;101120.25;5035039;28;20045;-44
2023/09/13 06:38:34;;;;;;;19.70;6.25;;;;;;;15.62;92.72;101122.22;5035352;28;20409;-43
2023/09/13 06:41:00;;;;;;;18.63;6.32;;;;;;;15.65;92.17;101119.09;5035016;28;20100;-44
2023/09/13 06:43:26;;;;;;;21.98;6.90;;;;;;;15.58;92.50;101127.25;5034980;28;20486;-42
2023/09/13 06:45:53;;;;;;;22.58;6.75;;;;;;;15.65;92.13;101131.75;5034894;28;20036;-43
2023/09/13 06:48:19;;;;;;;24.90;7.10;;;;;;;15.60;92.03;101132.41;5034877;28;20143;-43
2023/09/13 06:50:45;;;;;;;19.63;6.35;;;;;;;15.62;92.47;101132.19;5035183;28;20025;-48
2023/09/13 06:53:12;;;;;;;24.13;7.60;;;;;;;15.51;93.44;101133.81;5034687;28;20033;-44
2023/09/13 06:55:38;;;;;;;22.63;5.70;;;;;;;15.59;92.73;101131.59;5035088;28;20036;-43
2023/09/13 06:58:07;;;;;;;27.15;6.35;;;;;;;15.65;93.38;101137.97;5035020;28;20106;-44
2023/09/13 07:00:34;;;;;;;25.83;6.57;;;;;;;15.59;93.36;101133.47;5035249;28;20032;-43
2023/09/13 07:03:06;;;;;;;20.58;6.25;;;;;;;15.53;93.64;101131.69;5034865;28;20026;-44
2023/09/13 07:05:32;;;;;;;19.38;6.22;;;;;;;15.61;93.31;101134.09;5016926;28;20079;-47
2023/09/13 07:08:00;;;;;;;20.98;6.80;;;;;;;15.66;92.89;101136.13;5016824;28;20385;-43
2023/09/13 07:10:27;;;;;;;18.15;5.40;;;;;;;15.58;92.90;101132.66;5034782;28;20033;-44
2023/09/13 07:12:53;;;;;;;17.45;6.78;;;;;;;15.55;92.78;101132.31;5016875;28;20063;-43
2023/09/13 07:15:19;;;;;;;19.42;6.45;;;;;;;15.54;93.23;101136.03;5034483;28;20036;-47
2023/09/13 07:17:46;;;;;;;22.42;6.80;;;;;;;15.63;92.71;101129.28;5034394;28;20417;-45
2023/09/13 07:20:12;;;;;;;28.95;6.47;;;;;;;15.47;94.04;101125.34;5016868;28;20063;-45
2023/09/13 07:22:39;;;;;;;24.55;7.13;;;;;;;15.56;93.81;101125.84;5034242;28;20377;-46
2023/09/13 07:25:06;;;;;;;21.83;7.75;;;;;;;15.50;94.06;101127.59;5034268;28;20029;-43
2023/09/13 07:27:33;;;;;;;16.98;6.47;;;;;;;15.47;94.74;101122.66;5034128;28;20505;-43
2023/09/13 07:29:59;;;;;;;19.27;6.20;;;;;;;15.56;94.36;101118.59;5034161;28;20056;-43
2023/09/13 07:32:26;;;;;;;17.67;7.78;;;;;;;15.49;94.81;101117.03;5033962;28;20032;-44
2023/09/13 07:34:52;;;;;;;24.63;6.85;;;;;;;15.51;94.42;101123.03;5033946;28;20574;-43
2023/09/13 07:37:18;;;;;;;23.05;7.25;;;;;;;15.48;94.80;101121.59;5034015;28;20351;-44
2023/09/13 07:39:44;;;;;;;19.85;6.90;;;;;;;15.49;94.57;101131.38;5033939;28;20079;-42
2023/09/13 07:42:11;;;;;;;23.75;7.53;;;;;;;15.39;94.83;101130.28;5034005;28;20024;-45
2023/09/13 07:44:38;;;;;;;26.67;7.43;;;;;;;15.37;95.16;101126.97;5034290;28;20108;-44
2023/09/13 07:47:04;;;;;;;21.02;7.25;;;;;;;15.40;95.29;101124.66;5033759;28;20032;-43
2023/09/13 07:49:30;;;;;;;20.40;7.10;;;;;;;15.41;95.00;101118.19;5033859;28;20032;-44
2023/09/13 07:51:57;;;;;;;21.25;6.80;;;;;;;15.49;94.57;101115.19;5033766;28;20110;-43
2023/09/13 07:54:23;;;;;;;25.50;7.57;;;;;;;15.39;94.98;101112.22;5015985;28;20033;-44
2023/09/13 07:56:49;;;;;;;19.13;6.65;;;;;;;15.42;94.68;101116.31;5033592;28;20021;-43
2023/09/13 07:59:17;;;;;;;25.13;6.65;;;;;;;15.47;94.29;101116.44;5034041;28;20486;-45
2023/09/13 08:01:43;;;;;;;20.92;7.28;;;;;;;15.40;94.79;101111.16;5049247;28;20033;-44
2023/09/13 08:04:10;;;;;;;21.08;7.18;;;;;;;15.35;95.10;101113.72;5033486;28;20025;-42
2023/09/13 08:06:36;;;;;;;18.92;6.22;;;;;;;15.41;94.51;101117.38;5033636;28;20104;-43
2023/09/13 08:09:03;;;;;;;21.90;6.57;;;;;;;15.34;94.66;101124.75;5033451;28;20195;-42
2023/09/13 08:11:29;;;;;;;23.17;7.30;;;;;;;15.46;94.75;101125.59;5033157;28;20026;-43
2023/09/13 08:13:56;;;;;;;22.25;7.00;;;;;;;15.41;95.11;101117.38;5033377;28;20057;-42
2023/09/13 08:16:22;;;;;;;21.33;7.15;;;;;;;15.52;94.83;101122.78;5032478;28;20462;-43
2023/09/13 08:18:48;;;;;;;19.85;6.88;;;;;;;15.51;95.00;101112.25;5048579;28;20025;-43
2023/09/13 08:21:14;;;;;;;20.75;6.32;;;;;;;15.45;94.74;101116.69;5033499;28;20021;-42
2023/09/13 08:23:41;;;;;;;16.95;6.47;;;;;;;15.46;94.88;101118.31;5033143;28;20053;-42
2023/09/13 08:26:07;;;;;;;20.80;7.10;;;;;;;15.36;95.55;101114.53;5033085;28;20029;-43
2023/09/13 08:28:34;;;;;;;24.88;7.80;;;;;;;15.41;95.40;101114.69;5033262;28;20040;-42
2023/09/13 08:31:01;;;;;;;33.35;8.25;;;;;;;15.41;95.78;101112.81;5033016;28;20057;-43
2023/09/13 08:33:27;;;;;;;24.83;8.20;;;;;;;15.49;95.60;101107.09;5033213;28;20029;-42
2023/09/13 08:35:53;;;;;;;25.42;7.18;;;;;;;15.53;95.35;101102.03;5032878;28;20401;-43
2023/09/13 08:38:20;;;;;;;20.10;7.57;;;;;;;15.38;95.86;101107.88;5033129;28;20053;-43
2023/09/13 08:40:46;;;;;;;27.83;7.80;;;;;;;15.43;95.95;101110.69;5032864;28;20029;-44
2023/09/13 08:43:15;;;;;;;23.55;6.78;;;;;;;15.39;96.33;101112.22;5032868;28;20100;-43
2023/09/13 08:45:43;;;;;;;23.48;7.78;;;;;;;15.28;97.29;101113.00;5033238;28;20018;-46
2023/09/13 08:48:09;;;;;;;29.40;7.68;;;;;;;15.27;97.29;101114.06;5032911;28;20013;-44
2023/09/13 08:50:38;;;;;;;29.80;7.70;;;;;;;15.26;96.76;101117.78;5032901;28;20022;-47
2023/09/13 08:53:05;;;;;;;25.73;8.25;;;;;;;15.39;96.67;101109.53;5032700;28;20053;-44
2023/09/13 08:55:32;;;;;;;23.70;7.72;;;;;;;15.32;97.04;101115.03;5032869;28;20100;-44
2023/09/13 08:58:00;;;;;;;20.33;7.40;;;;;;;15.38;97.17;101109.72;5032872;28;20021;-44
2023/09/13 09:00:29;;;;;;;17.70;8.10;;;;;;;15.35;96.91;101113.72;5032767;28;20096;-44
2023/09/13 09:02:58;;;;;;;23.65;8.30;;;;;;;15.39;96.57;101117.63;5032741;28;20037;-44
2023/09/13 09:05:29;;;;;;;25.42;7.22;;;;;;;15.40;96.79;101113.03;5032803;28;20053;-44
2023/09/13 09:07:57;;;;;;;30.70;8.45;;;;;;;15.36;97.13;101115.38;5033090;28;20022;-44
2023/09/13 09:10:24;;;;;;;24.13;8.23;;;;;;;15.40;97.33;101110.34;5032767;28;20160;-44
2023/09/13 09:12:53;;;;;;;21.80;7.45;;;;;;;15.39;97.11;101106.00;5032813;28;20025;-43
2023/09/13 09:15:20;;;;;;;17.23;7.40;;;;;;;15.32;97.88;101106.94;5032718;28;20477;-44
2023/09/13 09:17:49;;;;;;;25.13;7.93;;;;;;;15.41;97.25;101099.31;5032794;28;20032;-45
2023/09/13 09:20:15;;;;;;;28.35;8.20;;;;;;;15.47;97.31;101102.97;5014959;28;20051;-44
2023/09/13 09:22:42;;;;;;;25.20;7.50;;;;;;;15.35;97.72;101108.34;5032844;28;20139;-44
2023/09/13 09:25:13;;;;;;;19.70;8.23;;;;;;;15.32;97.68;101104.25;5032735;28;20363;-44
2023/09/13 09:27:40;;;;;;;20.77;7.45;;;;;;;15.29;98.23;101103.88;5035107;28;20026;-44
2023/09/13 09:30:07;;;;;;;26.67;8.02;;;;;;;15.17;98.49;101106.53;5036304;28;20021;-44
2023/09/13 09:32:38;;;;;;;27.08;8.02;;;;;;;15.21;98.28;101104.19;5036712;28;20040;-43
2023/09/13 09:35:05;;;;;;;19.08;7.25;;;;;;;15.26;98.07;101109.69;5036651;28;20065;-43
2023/09/13 09:37:33;;;;;;;32.15;8.05;;;;;;;15.29;97.93;101114.66;5037262;28;20119;-45
2023/09/13 09:40:00;;;;;;;24.27;8.32;;;;;;;15.29;97.96;101110.06;5036588;28;20096;-45
2023/09/13 09:42:29;;;;;;;19.67;7.13;;;;;;;15.29;97.83;101106.56;5036159;28;20021;-44
2023/09/13 09:44:56;;;;;;;32.78;8.30;;;;;;;15.23;98.24;101099.41;5036288;28;20104;-45
2023/09/13 09:47:22;;;;;;;26.90;8.10;;;;;;;15.22;98.56;101103.16;5035969;28;20029;-43
2023/09/13 09:49:49;;;;;;;25.50;7.57;;;;;;;15.26;98.11;101098.91;5036304;28;20036;-43
2023/09/13 09:52:16;;;;;;;23.50;7.15;;;;;;;15.30;98.27;101095.53;5035839;28;20029;-44
2023/09/13 09:54:51;;;;;;;22.17;7.88;;;;;;;15.25;98.70;101091.88;5035823;28;20048;-44
2023/09/13 09:57:25;;;;;;;34.50;8.63;;;;;;;15.14;99.23;101098.88;5036252;28;20033;-43
2023/09/13 09:59:52;;;;;;;29.88;8.52;;;;;;;15.27;99.18;101098.72;5035752;28;20075;-43
2023/09/13 10:02:26;;;;;;;28.33;8.52;;;;;;;15.32;98.63;101092.59;5035726;28;20029;-43
2023/09/13 10:04:52;;;;;;;27.45;8.05;;;;;;;15.15;98.86;101097.00;5036038;28;20036;-45
2023/09/13 10:07:19;;;;;;;29.08;8.63;;;;;;;15.17;99.37;101095.75;5036472;28;20112;-44
2023/09/13 10:09:47;;;;;;;26.80;8.88;;;;;;;15.19;99.31;101100.91;5035605;28;20101;-44
2023/09/13 10:12:14;;;;;;;27.00;8.13;;;;;;;15.16;99.85;101099.50;5035317;28;20124;-44
2023/09/13 10:14:42;;;;;;;28.38;8.65;;;;;;;15.01;100.00;101107.19;5035471;28;20044;-43
2023/09/13 10:17:11;;;;;;;31.33;8.48;;;;;;;15.16;100.00;101104.91;5035580;28;20462;-43
2023/09/13 10:19:38;;;;;;;26.30;8.23;;;;;;;15.11;100.00;101098.53;5035865;28;20029;-44
2023/09/13 10:22:05;;;;;;;22.55;7.90;;;;;;;15.20;99.72;101105.25;5035397;28;20100;-43
2023/09/13 10:24:39;;;;;;;26.30;8.70;;;;;;;15.19;99.53;101101.72;5035325;28;20049;-45
2023/09/13 10:27:09;;;;;;;26.98;8.60;;;;;;;15.16;99.47;101106.78;5035345;28;20432;-44
2023/09/13 10:29:59;;;;;;;22.02;7.65;;;;;;;15.13;99.59;101104.53;5035349;28;20017;-43
2023/09/13 10:32:39;;;;;;;26.27;7.68;;;;;;;15.23;99.36;101110.19;5035149;28;20029;-43
2023/09/13 10:35:06;;;;;;;28.40;8.82;;;;;;;15.20;99.69;101099.84;5034986;28;20052;-43
2023/09/13 10:37:53;;;;;;;26.17;8.00;;;;;;;15.21;99.71;101101.47;5035096;28;20103;-43
2023/09/13 10:40:28;;;;;;;27.48;8.10;;;;;;;15.26;99.71;101099.75;5034721;28;20100;-46
2023/09/13 10:42:56;;;;;;;31.52;9.07;;;;;;;15.26;99.34;101104.31;5035136;28;20071;-43
2023/09/13 10:45:24;;;;;;;23.02;8.73;;;;;;;15.12;100.00;101106.41;5035233;28;20042;-44
2023/09/13 10:47:51;;;;;;;26.73;8.60;;;;;;;15.20;100.00;101110.63;5034866;28;20022;-44
2023/09/13 10:50:21;;;;;;;25.48;7.63;;;;;;;15.17;100.00;101103.00;5034847;28;20076;-44
2023/09/13 10:52:49;;;;;;;28.48;8.40;;;;;;;15.14;100.00;101106.97;5034901;28;20477;-44
2023/09/13 10:55:16;;;;;;;33.58;9.35;;;;;;;15.09;100.00;101109.53;5034776;28;20036;-44
2023/09/13 10:57:43;;;;;;;32.88;8.52;;;;;;;15.17;100.00;101105.72;5034829;28;20381;-44
2023/09/13 11:00:11;;;;;;;33.13;10.10;;;;;;;15.08;100.00;101105.19;5034624;28;20029;-44
2023/09/13 11:02:41;;;;;;;28.17;9.05;;;;;;;15.14;100.00;101100.75;5034655;28;20029;-45
2023/09/13 11:05:09;;;;;;;23.45;7.97;;;;;;;15.22;100.00;101105.84;5034701;28;20021;-43
2023/09/13 11:07:46;;;;;;;28.15;8.65;;;;;;;15.09;100.00;101111.41;5034871;28;20041;-43
2023/09/13 11:10:21;;;;;;;28.20;7.80;;;;;;;15.25;100.00;101100.78;5034582;28;20486;-45
2023/09/13 11:12:51;;;;;;;25.30;8.43;;;;;;;15.22;100.00;101105.84;5034414;28;20388;-43
2023/09/13 11:15:25;;;;;;;25.45;8.25;;;;;;;15.21;100.00;101093.38;5034496;28;20096;-43
2023/09/13 11:17:56;;;;;;;29.83;9.10;;;;;;;15.12;100.00;101098.31;5034790;28;20025;-45
2023/09/13 11:20:37;;;;;;;27.20;8.80;;;;;;;15.20;100.00;101094.44;5034675;28;20108;-44